Portada
METAR-TAF:

METAR-TAF

Aeroports :

Khartum, Sudan

latitud: 15-36N, longitud: 032-33E, altitud: 382 m

Observació

L'informe es va fer fa 23 minuts, a les 08:00 UTC
Vent 10 kt del Nord/Nord-Est
Temperatura 28°C
Humitat 23%
Pressió 1015 hPa
Visibilitat 10 km o més
sense núvols per sota de 1500 mi sense presència de cumulonimbus.

METAR: HSSS 060800Z 03010KT CAVOK 28/05 Q1015 NOSIG

Hora: 10:23 (08:23 UTC)

Pronòstic

L'informe es va fer fa 3 hores i 23 minuts, a les 05:00 UTC
Pronòstic vàlid del 06 a les 06 UTC al 07 a les 12 UTC
Vent 10 kt del Nord amb ràfegues de 20 kt
Visibilitat 10 km o més
sense núvols per sota de 1500 mi sense presència de cumulonimbus.

TAF: HSSS 060500Z 0606/0712 36010G20KT CAVOK

Observacions i pronòstics meteorològics de més de 4000 aeroports (METAR i TAF).

Les estacions disponibles són els punts grocs i vermells al mapa.

Posi el ratolí al punt desitjat per veure el nom de l'estació.

Feu clic per veure les observacions i els pronòstics meteorològics.

Per canviar el mapa: feu clic els botons verds amb una creu de color negre per apropar; al botó verd amb un guió per allunyar la imatge; o en les fletxes verdes per a mapes adjacents.


METAR-TAF: